createdAt,value
2022-12-08T00:01:21.895Z,13.43
2022-12-08T00:03:49.115Z,13.90
2022-12-08T00:06:49.346Z,17.10
2022-12-08T00:09:27.190Z,15.10
2022-12-08T00:11:57.140Z,14.63
2022-12-08T00:14:47.090Z,14.53
2022-12-08T00:17:15.808Z,14.02
2022-12-08T00:19:43.605Z,13.88
2022-12-08T00:22:12.094Z,17.63
2022-12-08T00:24:40.220Z,14.10
2022-12-08T00:27:08.964Z,13.05
2022-12-08T00:29:35.795Z,15.85
2022-12-08T00:32:02.545Z,14.88
2022-12-08T00:34:30.260Z,13.18
2022-12-08T00:36:56.982Z,12.30
2022-12-08T00:39:23.671Z,16.77
2022-12-08T00:42:08.877Z,14.45
2022-12-08T00:44:35.504Z,14.33
2022-12-08T00:47:02.180Z,11.17
2022-12-08T00:49:28.871Z,13.20
2022-12-08T00:51:55.571Z,11.80
2022-12-08T00:54:25.445Z,13.88
2022-12-08T00:56:52.653Z,12.50
2022-12-08T00:59:19.318Z,15.50
2022-12-08T01:01:47.153Z,14.77
2022-12-08T01:04:16.324Z,12.32
2022-12-08T01:06:43.423Z,14.27
2022-12-08T01:09:12.357Z,12.02
2022-12-08T01:11:38.985Z,12.38
2022-12-08T01:14:05.580Z,12.40
2022-12-08T01:16:35.411Z,10.73
2022-12-08T01:19:02.864Z,13.43
2022-12-08T01:21:29.616Z,18.02
2022-12-08T01:23:58.814Z,12.17
2022-12-08T01:26:25.493Z,17.70
2022-12-08T01:28:52.092Z,10.48
2022-12-08T01:31:20.712Z,14.57
2022-12-08T01:33:48.653Z,13.02
2022-12-08T01:36:30.916Z,13.20
2022-12-08T01:39:01.753Z,19.27
2022-12-08T01:41:32.281Z,13.82
2022-12-08T01:44:10.799Z,9.57
2022-12-08T01:46:43.308Z,16.02
2022-12-08T01:49:22.502Z,12.27
2022-12-08T01:52:07.923Z,15.25
2022-12-08T01:54:40.485Z,11.38
2022-12-08T01:57:16.029Z,8.97
2022-12-08T01:59:47.803Z,12.15
2022-12-08T02:02:14.518Z,10.55
2022-12-08T02:04:41.293Z,15.90
2022-12-08T02:07:09.770Z,13.70
2022-12-08T02:09:37.316Z,9.32
2022-12-08T02:12:04.426Z,13.68
2022-12-08T02:14:31.577Z,10.65
2022-12-08T02:17:05.481Z,14.48
2022-12-08T02:20:13.117Z,10.93
2022-12-08T02:22:51.497Z,11.33
2022-12-08T02:25:48.697Z,10.77
2022-12-08T02:28:41.569Z,10.98
2022-12-08T02:31:36.932Z,10.75
2022-12-08T02:34:17.943Z,13.60
2022-12-08T02:36:56.455Z,14.35
2022-12-08T02:39:46.115Z,11.40
2022-12-08T02:42:22.507Z,13.27
2022-12-08T02:44:53.144Z,10.90
2022-12-08T02:47:22.116Z,10.35
2022-12-08T02:49:49.098Z,12.57
2022-12-08T02:52:18.445Z,9.02
2022-12-08T02:54:50.551Z,9.50
2022-12-08T02:57:41.880Z,16.70
2022-12-08T03:00:09.983Z,13.77
2022-12-08T03:03:35.077Z,12.93
2022-12-08T03:06:25.500Z,11.55
2022-12-08T03:08:59.625Z,11.20
2022-12-08T03:11:47.995Z,9.18
2022-12-08T03:14:17.737Z,8.77
2022-12-08T03:16:48.629Z,11.23
2022-12-08T03:19:19.974Z,10.90
2022-12-08T03:21:53.667Z,8.35
2022-12-08T03:24:23.183Z,8.32
2022-12-08T03:27:01.617Z,8.88
2022-12-08T03:29:29.277Z,11.20
2022-12-08T03:32:00.749Z,9.85
2022-12-08T03:34:29.635Z,12.32
2022-12-08T03:36:56.371Z,10.40
2022-12-08T03:39:23.014Z,9.70
2022-12-08T03:41:49.687Z,12.13
2022-12-08T03:44:16.307Z,10.80
2022-12-08T03:46:42.975Z,9.45
2022-12-08T03:49:09.584Z,10.57
2022-12-08T03:51:36.414Z,9.40
2022-12-08T03:54:03.444Z,9.77
2022-12-08T03:56:33.226Z,9.85
2022-12-08T03:58:59.818Z,9.02
2022-12-08T04:01:27.380Z,8.30
2022-12-08T04:03:54.858Z,9.55
2022-12-08T04:06:22.263Z,9.13
2022-12-08T04:08:50.182Z,8.43
2022-12-08T04:11:17.806Z,10.20
2022-12-08T04:13:44.981Z,8.23
2022-12-08T04:16:26.478Z,8.95
2022-12-08T04:18:53.588Z,6.97
2022-12-08T04:21:20.382Z,8.90
2022-12-08T04:23:47.497Z,7.22
2022-12-08T04:26:14.860Z,12.38
2022-12-08T04:28:41.825Z,9.82
2022-12-08T04:31:08.700Z,10.27
2022-12-08T04:33:35.388Z,10.82
2022-12-08T04:36:03.780Z,10.13
2022-12-08T04:38:30.466Z,9.13
2022-12-08T04:40:57.091Z,13.48
2022-12-08T04:43:23.710Z,14.63
2022-12-08T04:45:50.344Z,14.00
2022-12-08T04:48:17.036Z,13.43
2022-12-08T04:50:45.206Z,10.82
2022-12-08T04:53:13.053Z,13.52
2022-12-08T04:55:44.710Z,12.10
2022-12-08T04:58:17.450Z,11.63
2022-12-08T05:00:45.101Z,14.30
2022-12-08T05:03:12.260Z,10.57
2022-12-08T05:05:39.285Z,11.32
2022-12-08T05:08:06.110Z,12.80
2022-12-08T05:10:33.173Z,11.05
2022-12-08T05:13:00.236Z,11.00
2022-12-08T05:15:27.530Z,11.25
2022-12-08T05:17:54.367Z,10.25
2022-12-08T05:20:21.096Z,10.45
2022-12-08T05:22:47.821Z,9.73
2022-12-08T05:25:15.029Z,10.73
2022-12-08T05:27:43.019Z,9.45
2022-12-08T05:30:10.035Z,10.10
2022-12-08T05:32:36.769Z,10.60
2022-12-08T05:35:03.495Z,11.27
2022-12-08T05:37:30.208Z,12.38
2022-12-08T05:39:56.859Z,8.02
2022-12-08T05:42:25.163Z,9.35
2022-12-08T05:44:52.400Z,11.65
2022-12-08T05:47:19.188Z,9.85
2022-12-08T05:49:45.946Z,11.95
2022-12-08T05:52:12.606Z,12.57
2022-12-08T05:54:39.282Z,7.75
2022-12-08T05:57:06.001Z,7.85
2022-12-08T05:59:32.795Z,9.80
2022-12-08T06:01:59.499Z,8.70
2022-12-08T06:04:26.244Z,11.82
2022-12-08T06:06:52.878Z,10.02
2022-12-08T06:09:19.493Z,8.18
2022-12-08T06:11:47.131Z,10.02
2022-12-08T06:14:13.898Z,10.88
2022-12-08T06:16:40.651Z,9.15
2022-12-08T06:19:07.721Z,10.57
2022-12-08T06:21:34.468Z,10.00
2022-12-08T06:24:01.219Z,8.68
2022-12-08T06:26:28.533Z,10.00
2022-12-08T06:28:55.260Z,9.18
2022-12-08T06:31:24.550Z,6.93
2022-12-08T06:33:52.408Z,7.28
2022-12-08T06:36:21.164Z,7.07
2022-12-08T06:38:47.828Z,7.68
2022-12-08T06:41:14.949Z,6.75
2022-12-08T06:43:42.069Z,6.15
2022-12-08T06:46:12.724Z,7.03
2022-12-08T06:48:39.505Z,7.40
2022-12-08T06:51:28.488Z,6.82
2022-12-08T06:53:55.139Z,6.13
2022-12-08T06:56:23.856Z,10.18
2022-12-08T06:58:52.712Z,8.00
2022-12-08T07:01:20.272Z,8.07
2022-12-08T07:03:47.752Z,6.93
2022-12-08T07:06:24.628Z,10.63
2022-12-08T07:08:51.850Z,6.00
2022-12-08T07:11:21.853Z,7.35
2022-12-08T07:13:49.777Z,6.53
2022-12-08T07:16:16.629Z,8.02
2022-12-08T07:18:43.943Z,12.25
2022-12-08T07:21:13.037Z,10.80
2022-12-08T07:23:39.664Z,13.65
2022-12-08T07:26:08.389Z,7.03
2022-12-08T07:28:36.965Z,6.50
2022-12-08T07:31:04.281Z,5.78
2022-12-08T07:33:32.090Z,7.18
2022-12-08T07:36:06.554Z,9.48
2022-12-08T07:38:33.382Z,6.25
2022-12-08T07:41:00.755Z,6.50
2022-12-08T07:43:27.738Z,5.55
2022-12-08T07:45:54.439Z,7.50
2022-12-08T07:48:21.149Z,5.47
2022-12-08T07:50:48.191Z,4.50
2022-12-08T07:53:15.057Z,5.93
2022-12-08T07:55:42.567Z,4.43
2022-12-08T07:58:10.101Z,6.32
2022-12-08T08:00:36.963Z,4.63
2022-12-08T08:03:03.729Z,5.30
2022-12-08T08:05:30.366Z,4.85
2022-12-08T08:07:57.045Z,4.25
2022-12-08T08:10:23.892Z,3.92
2022-12-08T08:12:50.590Z,5.07
2022-12-08T08:15:19.106Z,4.53
2022-12-08T08:17:50.578Z,4.07
2022-12-08T08:20:17.987Z,5.03
2022-12-08T08:22:49.502Z,3.92
2022-12-08T08:25:17.203Z,6.78
2022-12-08T08:27:45.209Z,4.95
2022-12-08T08:30:19.662Z,4.15
2022-12-08T08:32:48.576Z,4.43
2022-12-08T08:35:15.302Z,7.47
2022-12-08T08:37:45.722Z,5.97
2022-12-08T08:40:15.275Z,7.65
2022-12-08T08:42:41.991Z,6.93
2022-12-08T08:45:09.000Z,5.20
2022-12-08T08:47:35.707Z,3.50
2022-12-08T08:50:02.562Z,2.78
2022-12-08T08:52:30.042Z,3.42
2022-12-08T08:54:56.710Z,3.60
2022-12-08T08:57:25.832Z,3.17
2022-12-08T08:59:53.917Z,3.50
2022-12-08T09:02:21.105Z,3.03
2022-12-08T09:04:47.961Z,3.50
2022-12-08T09:07:15.612Z,2.95
2022-12-08T09:09:42.324Z,3.47
2022-12-08T09:12:09.207Z,3.08
2022-12-08T09:14:36.216Z,4.13
2022-12-08T09:17:02.984Z,5.05
2022-12-08T09:19:29.623Z,3.95
2022-12-08T09:21:56.306Z,4.00
2022-12-08T09:24:23.138Z,3.70
2022-12-08T09:26:50.205Z,5.80
2022-12-08T09:29:17.616Z,3.42
2022-12-08T09:31:44.632Z,3.42
2022-12-08T09:34:12.676Z,4.65
2022-12-08T09:36:39.939Z,3.35
2022-12-08T09:39:06.674Z,4.15
2022-12-08T09:41:49.902Z,3.92
2022-12-08T09:44:19.567Z,4.47
2022-12-08T09:46:48.366Z,4.32
2022-12-08T09:49:18.195Z,5.68
2022-12-08T09:51:46.016Z,4.40
2022-12-08T09:54:35.784Z,4.88
2022-12-08T09:57:08.229Z,4.65
2022-12-08T09:59:35.399Z,5.55
2022-12-08T10:02:03.449Z,5.85
2022-12-08T10:04:33.802Z,4.05
2022-12-08T10:07:07.544Z,4.63
2022-12-08T10:09:43.187Z,3.90
2022-12-08T10:12:27.873Z,4.32
2022-12-08T10:15:13.206Z,4.30
2022-12-08T10:17:45.889Z,5.45
2022-12-08T10:20:16.926Z,5.55
2022-12-08T10:22:45.974Z,5.63
2022-12-08T10:25:17.761Z,7.95
2022-12-08T10:27:46.858Z,4.55
2022-12-08T10:30:15.969Z,6.80
2022-12-08T10:32:45.750Z,5.22
2022-12-08T10:35:15.286Z,4.47
2022-12-08T10:37:42.048Z,5.15
2022-12-08T10:40:08.844Z,4.57
2022-12-08T10:42:40.053Z,4.13
2022-12-08T10:45:09.832Z,4.30
2022-12-08T10:47:43.672Z,5.22
2022-12-08T10:50:30.740Z,4.32
2022-12-08T10:53:12.473Z,4.00
2022-12-08T10:55:58.041Z,5.85
2022-12-08T10:58:27.862Z,4.13
2022-12-08T11:01:02.389Z,4.88
2022-12-08T11:03:57.744Z,4.90
2022-12-08T11:06:30.116Z,4.35
2022-12-08T11:08:59.693Z,5.15
2022-12-08T11:11:48.840Z,3.63
2022-12-08T11:14:22.996Z,3.90
2022-12-08T11:16:52.822Z,4.25
2022-12-08T11:19:20.800Z,4.25
2022-12-08T11:21:48.039Z,3.42
2022-12-08T11:24:14.657Z,4.47
2022-12-08T11:26:49.491Z,3.35
2022-12-08T11:29:17.305Z,3.53
2022-12-08T11:31:49.934Z,2.80
2022-12-08T11:34:34.904Z,2.30
2022-12-08T11:37:04.841Z,3.53
2022-12-08T11:39:35.649Z,3.67
2022-12-08T11:42:07.783Z,2.60
2022-12-08T11:44:42.264Z,5.57
2022-12-08T11:47:18.419Z,3.47
2022-12-08T11:52:30.558Z,3.20
2022-12-08T11:55:20.390Z,4.63
2022-12-08T11:57:48.512Z,3.83
2022-12-08T12:00:17.078Z,3.53
2022-12-08T12:02:55.842Z,6.25
2022-12-08T12:06:13.030Z,5.38
2022-12-08T12:08:42.210Z,6.97
2022-12-08T12:11:49.423Z,6.25
2022-12-08T12:14:46.714Z,6.90
2022-12-08T12:17:51.443Z,3.97
2022-12-08T12:20:34.669Z,4.47
2022-12-08T12:23:08.944Z,3.63
2022-12-08T12:25:36.742Z,4.22
2022-12-08T12:28:07.494Z,6.43
2022-12-08T12:31:00.622Z,3.75
2022-12-08T12:33:29.889Z,5.80
2022-12-08T12:35:58.460Z,3.70
2022-12-08T12:39:04.145Z,3.13
2022-12-08T12:41:49.111Z,2.17
2022-12-08T12:44:18.500Z,3.10
2022-12-08T12:46:50.883Z,2.28
2022-12-08T12:49:39.505Z,3.15
2022-12-08T12:52:15.346Z,6.88
2022-12-08T12:55:10.988Z,3.30
2022-12-08T12:57:52.586Z,2.95
2022-12-08T13:00:22.159Z,2.97
2022-12-08T13:02:49.895Z,4.00
2022-12-08T13:05:29.602Z,3.53
2022-12-08T13:08:03.269Z,5.03
2022-12-08T13:10:33.090Z,3.00
2022-12-08T13:13:16.341Z,3.08
2022-12-08T13:16:07.609Z,4.72
2022-12-08T13:18:55.864Z,3.75
2022-12-08T13:21:24.499Z,2.85
2022-12-08T13:24:12.878Z,3.92
2022-12-08T13:26:48.531Z,5.07
2022-12-08T13:29:18.973Z,2.53
2022-12-08T13:31:59.324Z,4.07
2022-12-08T13:34:51.959Z,3.22
2022-12-08T13:37:28.176Z,3.70
2022-12-08T13:40:14.080Z,5.70
2022-12-08T13:42:40.718Z,4.45
2022-12-08T13:45:30.147Z,3.15
2022-12-08T13:49:09.654Z,3.10
2022-12-08T13:57:27.021Z,3.03
2022-12-08T13:59:53.823Z,4.00
2022-12-08T14:02:45.291Z,4.80
2022-12-08T14:05:18.563Z,4.72
2022-12-08T14:07:48.101Z,4.97
2022-12-08T14:10:22.390Z,4.53
2022-12-08T14:13:03.719Z,3.40
2022-12-08T14:15:37.577Z,3.17
2022-12-08T14:18:06.747Z,4.47
2022-12-08T14:20:57.819Z,4.43
2022-12-08T14:23:22.160Z,4.68
2022-12-08T14:25:48.896Z,5.40
2022-12-08T14:28:16.308Z,3.85
2022-12-08T14:30:43.047Z,3.90
2022-12-08T14:33:15.296Z,3.85
2022-12-08T14:35:42.334Z,3.70
2022-12-08T14:38:17.902Z,4.05
2022-12-08T14:40:46.949Z,4.03
2022-12-08T14:43:20.219Z,3.45
2022-12-08T14:45:48.936Z,4.22
2022-12-08T14:48:27.885Z,4.15
2022-12-08T14:51:03.573Z,4.15
2022-12-08T14:53:42.725Z,4.93
2022-12-08T14:56:19.451Z,3.08
2022-12-08T14:58:48.792Z,4.38
2022-12-08T15:01:22.209Z,3.08
2022-12-08T15:03:51.584Z,4.30
2022-12-08T15:06:21.241Z,11.48
2022-12-08T15:08:58.739Z,7.85
2022-12-08T15:11:31.964Z,5.13
2022-12-08T15:13:58.921Z,4.70
2022-12-08T15:16:28.632Z,4.88
2022-12-08T15:19:16.438Z,4.35
2022-12-08T15:21:44.797Z,4.60
2022-12-08T15:24:13.268Z,6.38
2022-12-08T15:26:44.018Z,5.30
2022-12-08T15:29:22.274Z,3.58
2022-12-08T15:31:49.953Z,5.25
2022-12-08T15:34:16.712Z,7.10
2022-12-08T15:36:43.393Z,5.35
2022-12-08T15:39:27.236Z,4.85
2022-12-08T15:41:53.901Z,5.20
2022-12-08T15:44:20.530Z,6.28
2022-12-08T15:46:47.190Z,7.03
2022-12-08T15:49:18.636Z,4.47
2022-12-08T15:51:45.476Z,5.13
2022-12-08T15:54:12.744Z,6.20
2022-12-08T15:57:18.061Z,5.25
2022-12-08T15:59:38.893Z,5.68
2022-12-08T16:02:05.589Z,12.20
2022-12-08T16:07:29.672Z,15.35
2022-12-08T16:09:56.792Z,14.52
2022-12-08T16:18:26.249Z,13.47
2022-12-08T16:23:44.658Z,10.90
2022-12-08T16:27:50.733Z,12.33
2022-12-08T16:29:08.681Z,12.85
2022-12-08T16:31:36.683Z,11.68
2022-12-08T16:34:03.308Z,10.93
2022-12-08T16:36:29.946Z,13.93
2022-12-08T16:38:56.693Z,11.52
2022-12-08T16:41:42.040Z,11.38
2022-12-08T16:44:08.674Z,10.48
2022-12-08T16:46:36.282Z,12.50
2022-12-08T16:49:04.570Z,13.73
2022-12-08T16:51:31.247Z,12.45
2022-12-08T16:53:58.368Z,13.27
2022-12-08T16:56:32.145Z,13.27
2022-12-08T16:58:59.672Z,13.43
2022-12-08T17:01:26.333Z,15.30
2022-12-08T17:04:22.510Z,15.23
2022-12-08T17:06:39.781Z,15.93
2022-12-08T17:09:06.609Z,15.88
2022-12-08T17:11:39.112Z,18.20
2022-12-08T17:14:09.146Z,12.13
2022-12-08T17:16:35.884Z,13.43
2022-12-08T17:19:02.688Z,18.48
2022-12-08T17:21:29.457Z,20.08
2022-12-08T17:23:56.180Z,22.88
2022-12-08T17:26:22.853Z,17.07
2022-12-08T17:29:05.014Z,24.90
2022-12-08T17:31:32.873Z,15.80
2022-12-08T17:34:01.406Z,16.50
2022-12-08T17:36:28.093Z,20.70
2022-12-08T17:38:55.484Z,13.93
2022-12-08T17:41:22.171Z,11.40
2022-12-08T17:43:48.842Z,13.98
2022-12-08T17:46:19.809Z,10.70
2022-12-08T17:48:46.964Z,10.57
2022-12-08T17:51:14.478Z,10.10
2022-12-08T17:53:41.121Z,11.70
2022-12-08T17:56:15.904Z,15.15
2022-12-08T17:58:42.728Z,11.73
2022-12-08T18:01:10.868Z,9.73
2022-12-08T18:03:38.014Z,11.65
2022-12-08T18:06:09.917Z,12.00
2022-12-08T18:08:37.229Z,11.43
2022-12-08T18:11:04.900Z,10.95
2022-12-08T18:13:32.041Z,11.45
2022-12-08T18:15:58.859Z,11.88
2022-12-08T18:18:25.440Z,10.10
2022-12-08T18:20:52.141Z,11.40
2022-12-08T18:23:18.875Z,12.50
2022-12-08T18:25:45.655Z,14.80
2022-12-08T18:28:12.316Z,11.38
2022-12-08T18:30:40.023Z,11.85
2022-12-08T18:33:07.770Z,11.37
2022-12-08T18:35:34.883Z,13.95
2022-12-08T18:38:01.537Z,12.57
2022-12-08T18:40:28.634Z,21.43
2022-12-08T18:42:55.336Z,16.85
2022-12-08T18:45:22.767Z,18.10
2022-12-08T18:47:51.073Z,22.52
2022-12-08T18:50:18.218Z,30.43
2022-12-08T18:52:46.275Z,29.38
2022-12-08T18:55:13.682Z,25.13
2022-12-08T18:57:42.986Z,24.42
2022-12-08T19:00:15.974Z,25.00
2022-12-08T19:02:42.754Z,22.17
2022-12-08T19:05:11.937Z,24.75
2022-12-08T19:07:38.784Z,22.85
2022-12-08T19:10:06.985Z,20.90
2022-12-08T19:12:34.031Z,20.70
2022-12-08T19:15:00.717Z,22.40
2022-12-08T19:17:29.494Z,24.80
2022-12-08T19:19:56.110Z,21.88
2022-12-08T19:22:22.750Z,20.67
2022-12-08T19:24:49.603Z,18.33
2022-12-08T19:27:16.918Z,24.00
2022-12-08T19:29:43.593Z,24.15
2022-12-08T19:32:10.185Z,24.92
2022-12-08T19:34:36.875Z,26.05
2022-12-08T19:37:03.534Z,32.45
2022-12-08T19:39:48.890Z,24.27
2022-12-08T19:42:36.567Z,23.30
2022-12-08T19:45:11.857Z,23.30
2022-12-08T19:47:39.418Z,18.40
2022-12-08T19:50:26.674Z,19.27
2022-12-08T19:52:53.544Z,20.25
2022-12-08T19:55:20.382Z,20.23
2022-12-08T19:57:47.059Z,20.63
2022-12-08T20:00:14.153Z,20.40
2022-12-08T20:02:40.949Z,24.63
2022-12-08T20:05:11.029Z,24.60
2022-12-08T20:07:38.379Z,20.85
2022-12-08T20:10:07.501Z,22.60
2022-12-08T20:12:34.440Z,23.77
2022-12-08T20:15:01.090Z,25.77
2022-12-08T20:17:27.746Z,22.42
2022-12-08T20:19:54.457Z,23.23
2022-12-08T20:22:21.097Z,25.05
2022-12-08T20:24:56.435Z,27.92
2022-12-08T20:27:27.333Z,29.38
2022-12-08T20:29:53.973Z,37.75
2022-12-08T20:32:20.617Z,39.47
2022-12-08T20:34:47.234Z,39.22
2022-12-08T20:37:14.157Z,28.95
2022-12-08T20:39:40.780Z,19.50
2022-12-08T20:42:10.344Z,23.92
2022-12-08T20:44:43.043Z,22.13
2022-12-08T20:47:10.102Z,20.70
2022-12-08T20:49:36.827Z,22.23
2022-12-08T20:52:04.644Z,21.73
2022-12-08T20:54:31.366Z,21.40
2022-12-08T20:56:58.159Z,22.38
2022-12-08T20:59:26.360Z,20.92
2022-12-08T21:01:53.510Z,21.13
2022-12-08T21:04:20.778Z,22.50
2022-12-08T21:06:47.800Z,23.45
2022-12-08T21:09:14.537Z,19.83
2022-12-08T21:11:41.293Z,21.95
2022-12-08T21:14:08.016Z,22.02
2022-12-08T21:16:34.766Z,19.10
2022-12-08T21:19:01.537Z,21.33
2022-12-08T21:21:28.264Z,25.38
2022-12-08T21:23:55.067Z,25.67
2022-12-08T21:26:25.810Z,31.48
2022-12-08T21:28:54.720Z,33.13
2022-12-08T21:31:22.436Z,27.25
2022-12-08T21:33:49.611Z,27.10
2022-12-08T21:36:19.726Z,24.85
2022-12-08T21:38:47.286Z,25.20
2022-12-08T21:41:36.920Z,25.50
2022-12-08T21:44:04.802Z,24.55
2022-12-08T21:46:32.034Z,28.53
2022-12-08T21:48:58.921Z,27.80
2022-12-08T21:51:25.777Z,24.83
2022-12-08T21:53:52.612Z,30.80
2022-12-08T21:56:19.514Z,38.10
2022-12-08T21:58:46.186Z,42.20
2022-12-08T22:01:13.905Z,34.28
2022-12-08T22:03:41.105Z,35.15
2022-12-08T22:06:10.164Z,31.73
2022-12-08T22:08:37.437Z,30.23
2022-12-08T22:11:05.310Z,27.40
2022-12-08T22:13:35.344Z,26.40
2022-12-08T22:16:04.336Z,29.02
2022-12-08T22:18:31.403Z,27.63
2022-12-08T22:20:58.203Z,27.57
2022-12-08T22:23:24.982Z,28.10
2022-12-08T22:25:59.241Z,29.87
2022-12-08T22:28:26.896Z,25.77
2022-12-08T22:30:53.815Z,25.25
2022-12-08T22:33:20.658Z,25.35
2022-12-08T22:36:06.527Z,24.98
2022-12-08T22:38:37.336Z,27.98
2022-12-08T22:41:05.097Z,23.57
2022-12-08T22:43:32.539Z,27.25
2022-12-08T22:45:59.304Z,27.60
2022-12-08T22:48:26.151Z,32.17
2022-12-08T22:51:01.439Z,28.08
2022-12-08T22:53:28.237Z,28.90
2022-12-08T22:55:55.331Z,28.33
2022-12-08T22:58:22.017Z,26.73
2022-12-08T23:00:49.204Z,23.40
2022-12-08T23:03:16.092Z,28.50
2022-12-08T23:05:43.284Z,25.10
2022-12-08T23:08:14.558Z,28.07
2022-12-08T23:10:42.808Z,25.38
2022-12-08T23:13:10.253Z,26.50
2022-12-08T23:15:37.346Z,24.73
2022-12-08T23:18:05.227Z,25.97
2022-12-08T23:20:32.104Z,30.60
2022-12-08T23:22:58.941Z,30.15
2022-12-08T23:25:25.642Z,29.52
2022-12-08T23:27:52.573Z,29.73
2022-12-08T23:30:19.325Z,30.88
2022-12-08T23:32:46.180Z,27.48
2022-12-08T23:35:13.004Z,28.75
2022-12-08T23:37:39.708Z,28.00
2022-12-08T23:40:07.669Z,28.88
2022-12-08T23:42:34.680Z,28.75
2022-12-08T23:45:01.385Z,29.45
2022-12-08T23:47:28.219Z,26.20
2022-12-08T23:49:55.160Z,28.45
2022-12-08T23:52:21.938Z,29.95
2022-12-08T23:54:50.752Z,25.90
2022-12-08T23:57:17.527Z,28.23
2022-12-08T23:59:44.272Z,27.98
